sensor_id;sensor_type;location;lat;lon;timestamp;temperature;humidity
11091;DHT22;5599;52.210;21.046;2023-03-12T00:00:16;0.60;1.00
11091;DHT22;5599;52.210;21.046;2023-03-12T00:02:45;0.60;1.00
11091;DHT22;5599;52.210;21.046;2023-03-12T00:05:15;0.60;99.90
11091;DHT22;5599;52.210;21.046;2023-03-12T00:07:45;0.60;99.90
11091;DHT22;5599;52.210;21.046;2023-03-12T00:10:15;0.50;1.00
11091;DHT22;5599;52.210;21.046;2023-03-12T00:12:44;0.60;1.00
11091;DHT22;5599;52.210;21.046;2023-03-12T00:15:14;0.60;99.90
11091;DHT22;5599;52.210;21.046;2023-03-12T00:17:43;0.50;99.90
11091;DHT22;5599;52.210;21.046;2023-03-12T00:20:13;0.60;1.00
11091;DHT22;5599;52.210;21.046;2023-03-12T00:22:42;0.50;1.00
11091;DHT22;5599;52.210;21.046;2023-03-12T00:25:14;0.50;1.00
11091;DHT22;5599;52.210;21.046;2023-03-12T00:27:44;0.50;1.00
11091;DHT22;5599;52.210;21.046;2023-03-12T00:30:13;0.50;62.00
11091;DHT22;5599;52.210;21.046;2023-03-12T00:32:43;0.50;99.90
11091;DHT22;5599;52.210;21.046;2023-03-12T00:35:12;0.60;99.90
11091;DHT22;5599;52.210;21.046;2023-03-12T00:37:42;0.50;99.90
11091;DHT22;5599;52.210;21.046;2023-03-12T00:40:13;0.50;99.90
11091;DHT22;5599;52.210;21.046;2023-03-12T00:42:42;0.60;99.90
11091;DHT22;5599;52.210;21.046;2023-03-12T00:45:11;0.60;99.90
11091;DHT22;5599;52.210;21.046;2023-03-12T00:47:41;0.50;99.90
11091;DHT22;5599;52.210;21.046;2023-03-12T00:50:10;0.50;99.90
11091;DHT22;5599;52.210;21.046;2023-03-12T00:52:39;0.50;99.90
11091;DHT22;5599;52.210;21.046;2023-03-12T00:55:09;0.50;99.90
11091;DHT22;5599;52.210;21.046;2023-03-12T00:57:40;0.50;99.90
11091;DHT22;5599;52.210;21.046;2023-03-12T01:00:10;0.50;99.90
11091;DHT22;5599;52.210;21.046;2023-03-12T01:02:40;0.50;99.90
11091;DHT22;5599;52.210;21.046;2023-03-12T01:05:11;0.50;99.90
11091;DHT22;5599;52.210;21.046;2023-03-12T01:07:41;0.50;99.90
11091;DHT22;5599;52.210;21.046;2023-03-12T01:10:13;0.50;99.90
11091;DHT22;5599;52.210;21.046;2023-03-12T01:12:47;0.60;99.90
11091;DHT22;5599;52.210;21.046;2023-03-12T01:15:16;0.50;99.90
11091;DHT22;5599;52.210;21.046;2023-03-12T01:17:46;0.50;99.90
11091;DHT22;5599;52.210;21.046;2023-03-12T01:20:16;0.60;99.90
11091;DHT22;5599;52.210;21.046;2023-03-12T01:22:45;0.60;99.90
11091;DHT22;5599;52.210;21.046;2023-03-12T01:25:15;0.60;99.90
11091;DHT22;5599;52.210;21.046;2023-03-12T01:27:45;0.60;99.90
11091;DHT22;5599;52.210;21.046;2023-03-12T01:30:15;0.60;99.90
11091;DHT22;5599;52.210;21.046;2023-03-12T01:32:44;0.60;99.90
11091;DHT22;5599;52.210;21.046;2023-03-12T01:35:13;0.60;99.90
11091;DHT22;5599;52.210;21.046;2023-03-12T01:37:43;0.60;99.90
11091;DHT22;5599;52.210;21.046;2023-03-12T01:40:14;0.60;99.90
11091;DHT22;5599;52.210;21.046;2023-03-12T01:42:51;0.70;99.90
11091;DHT22;5599;52.210;21.046;2023-03-12T01:46:01;0.70;99.90
11091;DHT22;5599;52.210;21.046;2023-03-12T01:48:37;0.70;99.90
11091;DHT22;5599;52.210;21.046;2023-03-12T01:51:08;0.70;99.90
11091;DHT22;5599;52.210;21.046;2023-03-12T01:53:41;0.70;99.90
11091;DHT22;5599;52.210;21.046;2023-03-12T01:56:12;0.70;99.90
11091;DHT22;5599;52.210;21.046;2023-03-12T01:58:47;0.80;99.90
11091;DHT22;5599;52.210;21.046;2023-03-12T02:01:19;0.70;99.90
11091;DHT22;5599;52.210;21.046;2023-03-12T02:03:51;0.80;98.30
11091;DHT22;5599;52.210;21.046;2023-03-12T02:06:27;0.90;51.60
11091;DHT22;5599;52.210;21.046;2023-03-12T02:08:58;0.80;99.90
11091;DHT22;5599;52.210;21.046;2023-03-12T02:11:30;0.80;26.70
11091;DHT22;5599;52.210;21.046;2023-03-12T02:14:01;0.90;99.90
11091;DHT22;5599;52.210;21.046;2023-03-12T02:16:31;1.00;49.00
11091;DHT22;5599;52.210;21.046;2023-03-12T02:19:01;1.00;4.30
11091;DHT22;5599;52.210;21.046;2023-03-12T02:21:33;1.10;1.00
11091;DHT22;5599;52.210;21.046;2023-03-12T02:24:08;1.00;1.00
11091;DHT22;5599;52.210;21.046;2023-03-12T02:26:42;1.00;1.00
11091;DHT22;5599;52.210;21.046;2023-03-12T02:29:12;1.00;1.00
11091;DHT22;5599;52.210;21.046;2023-03-12T02:31:43;1.00;1.00
11091;DHT22;5599;52.210;21.046;2023-03-12T02:34:15;1.00;1.00
11091;DHT22;5599;52.210;21.046;2023-03-12T02:36:44;1.10;1.00
11091;DHT22;5599;52.210;21.046;2023-03-12T02:39:13;1.10;1.00
11091;DHT22;5599;52.210;21.046;2023-03-12T02:41:47;1.10;1.00
11091;DHT22;5599;52.210;21.046;2023-03-12T02:44:22;1.10;1.00
11091;DHT22;5599;52.210;21.046;2023-03-12T02:46:53;1.10;1.00
11091;DHT22;5599;52.210;21.046;2023-03-12T02:49:25;1.10;1.00
11091;DHT22;5599;52.210;21.046;2023-03-12T02:51:55;1.10;1.00
11091;DHT22;5599;52.210;21.046;2023-03-12T02:54:25;1.20;1.00
11091;DHT22;5599;52.210;21.046;2023-03-12T02:56:56;1.10;1.00
11091;DHT22;5599;52.210;21.046;2023-03-12T02:59:28;1.10;1.00
11091;DHT22;5599;52.210;21.046;2023-03-12T03:01:59;1.10;1.00
11091;DHT22;5599;52.210;21.046;2023-03-12T03:04:30;1.10;1.00
11091;DHT22;5599;52.210;21.046;2023-03-12T03:07:01;1.10;1.00
11091;DHT22;5599;52.210;21.046;2023-03-12T03:09:30;1.10;1.00
11091;DHT22;5599;52.210;21.046;2023-03-12T03:12:01;1.10;1.00
11091;DHT22;5599;52.210;21.046;2023-03-12T03:14:33;1.10;1.00
11091;DHT22;5599;52.210;21.046;2023-03-12T03:17:03;1.10;1.00
11091;DHT22;5599;52.210;21.046;2023-03-12T03:19:32;1.10;99.90
11091;DHT22;5599;52.210;21.046;2023-03-12T03:22:03;1.10;1.00
11091;DHT22;5599;52.210;21.046;2023-03-12T03:24:32;1.10;1.00
11091;DHT22;5599;52.210;21.046;2023-03-12T03:27:04;1.10;1.00
11091;DHT22;5599;52.210;21.046;2023-03-12T03:29:33;1.10;1.00
11091;DHT22;5599;52.210;21.046;2023-03-12T03:32:03;1.20;99.90
11091;DHT22;5599;52.210;21.046;2023-03-12T03:34:33;1.20;99.90
11091;DHT22;5599;52.210;21.046;2023-03-12T03:37:02;1.20;99.90
11091;DHT22;5599;52.210;21.046;2023-03-12T03:39:32;1.20;99.90
11091;DHT22;5599;52.210;21.046;2023-03-12T03:42:04;1.30;99.90
11091;DHT22;5599;52.210;21.046;2023-03-12T03:44:33;1.30;99.90
11091;DHT22;5599;52.210;21.046;2023-03-12T03:47:03;1.30;99.90
11091;DHT22;5599;52.210;21.046;2023-03-12T03:49:32;1.30;8.60
11091;DHT22;5599;52.210;21.046;2023-03-12T03:52:01;1.30;99.90
11091;DHT22;5599;52.210;21.046;2023-03-12T03:54:34;1.40;99.90
11091;DHT22;5599;52.210;21.046;2023-03-12T03:57:06;1.30;17.40
11091;DHT22;5599;52.210;21.046;2023-03-12T03:59:36;1.40;28.10
11091;DHT22;5599;52.210;21.046;2023-03-12T04:02:05;1.40;1.00
11091;DHT22;5599;52.210;21.046;2023-03-12T04:04:38;1.40;21.50
11091;DHT22;5599;52.210;21.046;2023-03-12T04:07:08;1.30;99.90
11091;DHT22;5599;52.210;21.046;2023-03-12T04:09:38;1.40;77.10
11091;DHT22;5599;52.210;21.046;2023-03-12T04:12:10;1.50;20.90
11091;DHT22;5599;52.210;21.046;2023-03-12T04:14:41;1.40;1.00
11091;DHT22;5599;52.210;21.046;2023-03-12T04:17:11;1.40;1.00
11091;DHT22;5599;52.210;21.046;2023-03-12T04:19:41;1.50;1.00
11091;DHT22;5599;52.210;21.046;2023-03-12T04:22:10;1.50;1.00
11091;DHT22;5599;52.210;21.046;2023-03-12T04:24:39;1.50;1.00
11091;DHT22;5599;52.210;21.046;2023-03-12T04:27:11;1.40;1.00
11091;DHT22;5599;52.210;21.046;2023-03-12T04:29:40;1.50;1.00
11091;DHT22;5599;52.210;21.046;2023-03-12T04:32:10;1.50;1.00
11091;DHT22;5599;52.210;21.046;2023-03-12T04:34:39;1.50;1.00
11091;DHT22;5599;52.210;21.046;2023-03-12T04:37:09;1.50;1.00
11091;DHT22;5599;52.210;21.046;2023-03-12T04:39:42;1.60;1.00
11091;DHT22;5599;52.210;21.046;2023-03-12T04:42:14;1.60;1.00
11091;DHT22;5599;52.210;21.046;2023-03-12T04:44:45;1.60;1.00
11091;DHT22;5599;52.210;21.046;2023-03-12T04:47:14;1.70;1.00
11091;DHT22;5599;52.210;21.046;2023-03-12T04:49:45;1.70;99.90
11091;DHT22;5599;52.210;21.046;2023-03-12T04:52:14;1.70;1.00
11091;DHT22;5599;52.210;21.046;2023-03-12T04:54:44;1.70;99.90
11091;DHT22;5599;52.210;21.046;2023-03-12T04:57:16;1.70;1.00
11091;DHT22;5599;52.210;21.046;2023-03-12T04:59:46;1.70;99.90
11091;DHT22;5599;52.210;21.046;2023-03-12T05:02:15;1.80;1.00
11091;DHT22;5599;52.210;21.046;2023-03-12T05:04:44;1.80;99.90
11091;DHT22;5599;52.210;21.046;2023-03-12T05:07:14;1.80;99.90
11091;DHT22;5599;52.210;21.046;2023-03-12T05:09:43;1.80;1.00
11091;DHT22;5599;52.210;21.046;2023-03-12T05:12:15;1.80;99.90
11091;DHT22;5599;52.210;21.046;2023-03-12T05:14:44;1.80;1.00
11091;DHT22;5599;52.210;21.046;2023-03-12T05:17:13;1.70;1.00
11091;DHT22;5599;52.210;21.046;2023-03-12T05:19:43;1.70;1.00
11091;DHT22;5599;52.210;21.046;2023-03-12T05:22:12;1.80;85.70
11091;DHT22;5599;52.210;21.046;2023-03-12T05:24:41;1.70;99.90
11091;DHT22;5599;52.210;21.046;2023-03-12T05:27:11;1.80;99.90
11091;DHT22;5599;52.210;21.046;2023-03-12T05:29:42;1.80;99.90
11091;DHT22;5599;52.210;21.046;2023-03-12T05:32:11;1.80;99.90
11091;DHT22;5599;52.210;21.046;2023-03-12T05:34:41;1.80;99.90
11091;DHT22;5599;52.210;21.046;2023-03-12T05:37:10;1.70;99.90
11091;DHT22;5599;52.210;21.046;2023-03-12T05:39:39;1.70;99.90
11091;DHT22;5599;52.210;21.046;2023-03-12T05:42:15;1.70;99.90
11091;DHT22;5599;52.210;21.046;2023-03-12T05:44:47;1.80;1.00
11091;DHT22;5599;52.210;21.046;2023-03-12T05:47:18;1.80;1.00
11091;DHT22;5599;52.210;21.046;2023-03-12T05:49:48;1.80;99.90
11091;DHT22;5599;52.210;21.046;2023-03-12T05:52:17;1.80;1.00
11091;DHT22;5599;52.210;21.046;2023-03-12T05:54:47;1.80;99.90
11091;DHT22;5599;52.210;21.046;2023-03-12T05:57:16;1.80;99.90
11091;DHT22;5599;52.210;21.046;2023-03-12T05:59:47;1.90;99.90
11091;DHT22;5599;52.210;21.046;2023-03-12T06:02:16;1.80;99.90
11091;DHT22;5599;52.210;21.046;2023-03-12T06:04:46;1.90;99.90
11091;DHT22;5599;52.210;21.046;2023-03-12T06:07:15;1.90;21.80
11091;DHT22;5599;52.210;21.046;2023-03-12T06:09:44;1.90;1.00
11091;DHT22;5599;52.210;21.046;2023-03-12T06:12:14;1.90;1.00
11091;DHT22;5599;52.210;21.046;2023-03-12T06:14:44;1.90;1.00
11091;DHT22;5599;52.210;21.046;2023-03-12T06:17:15;2.00;1.00
11091;DHT22;5599;52.210;21.046;2023-03-12T06:19:44;2.00;1.00
11091;DHT22;5599;52.210;21.046;2023-03-12T06:22:14;2.00;1.00
11091;DHT22;5599;52.210;21.046;2023-03-12T06:24:43;2.00;99.90
11091;DHT22;5599;52.210;21.046;2023-03-12T06:27:15;2.00;99.90
11091;DHT22;5599;52.210;21.046;2023-03-12T06:29:45;2.00;1.00
11091;DHT22;5599;52.210;21.046;2023-03-12T06:32:16;2.10;1.00
11091;DHT22;5599;52.210;21.046;2023-03-12T06:34:45;2.10;99.90
11091;DHT22;5599;52.210;21.046;2023-03-12T06:37:15;2.20;99.90
11091;DHT22;5599;52.210;21.046;2023-03-12T06:39:44;2.40;1.00
11091;DHT22;5599;52.210;21.046;2023-03-12T06:42:13;2.60;1.00
11091;DHT22;5599;52.210;21.046;2023-03-12T06:44:44;2.60;1.00
11091;DHT22;5599;52.210;21.046;2023-03-12T06:47:15;2.60;49.40
11091;DHT22;5599;52.210;21.046;2023-03-12T06:49:44;2.60;1.00
11091;DHT22;5599;52.210;21.046;2023-03-12T06:52:13;2.70;99.90
11091;DHT22;5599;52.210;21.046;2023-03-12T06:54:42;2.80;82.70
11091;DHT22;5599;52.210;21.046;2023-03-12T06:57:12;2.60;41.40
11091;DHT22;5599;52.210;21.046;2023-03-12T06:59:43;2.60;99.90
11091;DHT22;5599;52.210;21.046;2023-03-12T07:02:16;2.60;99.90
11091;DHT22;5599;52.210;21.046;2023-03-12T07:04:46;2.70;99.90
11091;DHT22;5599;52.210;21.046;2023-03-12T07:07:15;2.60;1.00
11091;DHT22;5599;52.210;21.046;2023-03-12T07:09:45;2.60;99.90
11091;DHT22;5599;52.210;21.046;2023-03-12T07:12:14;2.60;1.00
11091;DHT22;5599;52.210;21.046;2023-03-12T07:14:43;2.70;1.00
11091;DHT22;5599;52.210;21.046;2023-03-12T07:17:13;2.70;1.00
11091;DHT22;5599;52.210;21.046;2023-03-12T07:19:43;2.70;6.00
11091;DHT22;5599;52.210;21.046;2023-03-12T07:22:16;2.80;99.90
11091;DHT22;5599;52.210;21.046;2023-03-12T07:24:45;2.90;1.00
11091;DHT22;5599;52.210;21.046;2023-03-12T07:27:14;3.00;1.00
11091;DHT22;5599;52.210;21.046;2023-03-12T07:29:44;3.00;1.00
11091;DHT22;5599;52.210;21.046;2023-03-12T07:32:13;3.00;1.00
11091;DHT22;5599;52.210;21.046;2023-03-12T07:34:44;3.10;99.90
11091;DHT22;5599;52.210;21.046;2023-03-12T07:37:14;3.20;1.00
11091;DHT22;5599;52.210;21.046;2023-03-12T07:39:43;3.80;1.00
11091;DHT22;5599;52.210;21.046;2023-03-12T07:42:14;4.50;99.90
11091;DHT22;5599;52.210;21.046;2023-03-12T07:44:44;5.10;1.00
11091;DHT22;5599;52.210;21.046;2023-03-12T07:47:15;5.40;99.90
11091;DHT22;5599;52.210;21.046;2023-03-12T07:49:52;5.40;99.90
11091;DHT22;5599;52.210;21.046;2023-03-12T07:52:21;5.50;81.30
11091;DHT22;5599;52.210;21.046;2023-03-12T07:54:51;6.00;1.00
11091;DHT22;5599;52.210;21.046;2023-03-12T07:57:22;6.40;99.90
11091;DHT22;5599;52.210;21.046;2023-03-12T07:59:52;6.80;99.90
11091;DHT22;5599;52.210;21.046;2023-03-12T08:02:22;6.50;99.90
11091;DHT22;5599;52.210;21.046;2023-03-12T08:04:53;6.30;99.90
11091;DHT22;5599;52.210;21.046;2023-03-12T08:07:23;6.50;99.90
11091;DHT22;5599;52.210;21.046;2023-03-12T08:09:59;6.70;99.90
11091;DHT22;5599;52.210;21.046;2023-03-12T08:12:33;6.70;99.90
11091;DHT22;5599;52.210;21.046;2023-03-12T08:15:05;6.70;88.70
11091;DHT22;5599;52.210;21.046;2023-03-12T08:17:38;6.70;99.90
11091;DHT22;5599;52.210;21.046;2023-03-12T08:20:10;6.50;99.90
11091;DHT22;5599;52.210;21.046;2023-03-12T08:22:41;6.30;99.90
11091;DHT22;5599;52.210;21.046;2023-03-12T08:25:11;6.40;99.90
11091;DHT22;5599;52.210;21.046;2023-03-12T08:27:40;6.70;99.90
11091;DHT22;5599;52.210;21.046;2023-03-12T08:30:11;6.70;6.20
11091;DHT22;5599;52.210;21.046;2023-03-12T08:32:41;6.60;1.00
11091;DHT22;5599;52.210;21.046;2023-03-12T08:35:14;6.30;1.00
11091;DHT22;5599;52.210;21.046;2023-03-12T08:37:44;5.90;1.00
11091;DHT22;5599;52.210;21.046;2023-03-12T08:40:13;5.80;1.00
11091;DHT22;5599;52.210;21.046;2023-03-12T08:42:46;5.90;1.00
11091;DHT22;5599;52.210;21.046;2023-03-12T08:45:20;5.90;57.40
11091;DHT22;5599;52.210;21.046;2023-03-12T08:47:49;6.00;55.30
11091;DHT22;5599;52.210;21.046;2023-03-12T08:50:23;6.10;44.90
11091;DHT22;5599;52.210;21.046;2023-03-12T08:52:56;6.40;1.00
11091;DHT22;5599;52.210;21.046;2023-03-12T08:55:26;6.60;43.00
11091;DHT22;5599;52.210;21.046;2023-03-12T08:57:56;6.50;1.00
11091;DHT22;5599;52.210;21.046;2023-03-12T09:00:25;6.50;28.90
11091;DHT22;5599;52.210;21.046;2023-03-12T09:02:56;6.50;1.00
11091;DHT22;5599;52.210;21.046;2023-03-12T09:05:27;6.60;1.00
11091;DHT22;5599;52.210;21.046;2023-03-12T09:07:57;6.50;1.00
11091;DHT22;5599;52.210;21.046;2023-03-12T09:10:27;6.40;3.30
11091;DHT22;5599;52.210;21.046;2023-03-12T09:12:57;6.40;1.00
11091;DHT22;5599;52.210;21.046;2023-03-12T09:15:29;6.40;1.00
11091;DHT22;5599;52.210;21.046;2023-03-12T09:17:59;6.50;1.00
11091;DHT22;5599;52.210;21.046;2023-03-12T09:20:33;6.40;1.00
11091;DHT22;5599;52.210;21.046;2023-03-12T09:23:02;6.70;1.00
11091;DHT22;5599;52.210;21.046;2023-03-12T09:25:34;7.00;22.00
11091;DHT22;5599;52.210;21.046;2023-03-12T09:28:03;6.90;3.30
11091;DHT22;5599;52.210;21.046;2023-03-12T09:30:36;6.70;16.50
11091;DHT22;5599;52.210;21.046;2023-03-12T09:33:06;6.60;1.00
11091;DHT22;5599;52.210;21.046;2023-03-12T09:35:37;6.60;80.70
11091;DHT22;5599;52.210;21.046;2023-03-12T09:38:07;6.80;1.00
11091;DHT22;5599;52.210;21.046;2023-03-12T09:40:37;6.90;1.00
11091;DHT22;5599;52.210;21.046;2023-03-12T09:43:10;7.00;1.00
11091;DHT22;5599;52.210;21.046;2023-03-12T09:45:44;7.10;99.90
11091;DHT22;5599;52.210;21.046;2023-03-12T09:48:17;7.10;57.70
11091;DHT22;5599;52.210;21.046;2023-03-12T09:50:49;7.30;99.90
11091;DHT22;5599;52.210;21.046;2023-03-12T09:53:25;7.40;3.30
11091;DHT22;5599;52.210;21.046;2023-03-12T09:55:57;7.30;50.90
11091;DHT22;5599;52.210;21.046;2023-03-12T09:58:29;7.20;87.60
11091;DHT22;5599;52.210;21.046;2023-03-12T10:01:06;7.10;99.90
11091;DHT22;5599;52.210;21.046;2023-03-12T10:03:53;6.90;1.00
11091;DHT22;5599;52.210;21.046;2023-03-12T10:06:30;6.70;1.00
11091;DHT22;5599;52.210;21.046;2023-03-12T10:09:11;6.70;99.90
11091;DHT22;5599;52.210;21.046;2023-03-12T10:11:51;6.70;8.30
11091;DHT22;5599;52.210;21.046;2023-03-12T10:14:32;6.40;1.00
11091;DHT22;5599;52.210;21.046;2023-03-12T10:17:19;6.20;1.00
11091;DHT22;5599;52.210;21.046;2023-03-12T10:20:20;5.90;1.00
11091;DHT22;5599;52.210;21.046;2023-03-12T10:22:55;5.70;1.00
11091;DHT22;5599;52.210;21.046;2023-03-12T10:25:32;5.50;1.00
11091;DHT22;5599;52.210;21.046;2023-03-12T10:28:11;5.40;1.00
11091;DHT22;5599;52.210;21.046;2023-03-12T10:30:48;5.30;1.00
11091;DHT22;5599;52.210;21.046;2023-03-12T10:33:20;5.20;1.00
11091;DHT22;5599;52.210;21.046;2023-03-12T10:35:52;5.00;1.00
11091;DHT22;5599;52.210;21.046;2023-03-12T10:38:26;5.00;1.00
11091;DHT22;5599;52.210;21.046;2023-03-12T10:40:57;4.90;1.00
11091;DHT22;5599;52.210;21.046;2023-03-12T10:43:26;4.80;1.00
11091;DHT22;5599;52.210;21.046;2023-03-12T10:46:00;4.80;1.00
11091;DHT22;5599;52.210;21.046;2023-03-12T10:48:36;4.90;1.00
11091;DHT22;5599;52.210;21.046;2023-03-12T10:51:07;5.10;1.00
11091;DHT22;5599;52.210;21.046;2023-03-12T10:53:39;5.20;1.00
11091;DHT22;5599;52.210;21.046;2023-03-12T10:56:13;5.30;1.00
11091;DHT22;5599;52.210;21.046;2023-03-12T10:58:45;5.40;1.00
11091;DHT22;5599;52.210;21.046;2023-03-12T11:01:20;5.50;1.00
11091;DHT22;5599;52.210;21.046;2023-03-12T11:03:51;5.60;1.00
11091;DHT22;5599;52.210;21.046;2023-03-12T11:06:22;5.60;1.00
11091;DHT22;5599;52.210;21.046;2023-03-12T11:09:04;5.70;1.00
11091;DHT22;5599;52.210;21.046;2023-03-12T11:11:44;5.80;1.00
11091;DHT22;5599;52.210;21.046;2023-03-12T11:14:17;6.10;1.00
11091;DHT22;5599;52.210;21.046;2023-03-12T11:16:47;6.00;1.00
11091;DHT22;5599;52.210;21.046;2023-03-12T11:19:27;6.10;1.00
11091;DHT22;5599;52.210;21.046;2023-03-12T11:21:59;6.10;1.00
11091;DHT22;5599;52.210;21.046;2023-03-12T11:24:30;6.10;1.00
11091;DHT22;5599;52.210;21.046;2023-03-12T11:27:04;6.00;1.00
11091;DHT22;5599;52.210;21.046;2023-03-12T11:29:36;5.80;99.90
11091;DHT22;5599;52.210;21.046;2023-03-12T11:32:13;5.60;1.00
11091;DHT22;5599;52.210;21.046;2023-03-12T11:34:46;5.50;1.00
11091;DHT22;5599;52.210;21.046;2023-03-12T11:37:23;5.60;1.00
11091;DHT22;5599;52.210;21.046;2023-03-12T11:40:05;5.70;1.00
11091;DHT22;5599;52.210;21.046;2023-03-12T11:42:51;5.70;1.00
11091;DHT22;5599;52.210;21.046;2023-03-12T11:45:27;5.70;1.00
11091;DHT22;5599;52.210;21.046;2023-03-12T11:48:09;5.80;1.00
11091;DHT22;5599;52.210;21.046;2023-03-12T11:50:49;6.00;1.00
11091;DHT22;5599;52.210;21.046;2023-03-12T11:53:37;6.10;1.00
11091;DHT22;5599;52.210;21.046;2023-03-12T11:56:22;6.20;1.00
11091;DHT22;5599;52.210;21.046;2023-03-12T11:59:00;6.10;1.00
11091;DHT22;5599;52.210;21.046;2023-03-12T12:01:38;6.10;1.00
11091;DHT22;5599;52.210;21.046;2023-03-12T12:07:22;6.10;1.00
11091;DHT22;5599;52.210;21.046;2023-03-12T12:10:02;6.10;1.00
11091;DHT22;5599;52.210;21.046;2023-03-12T12:12:49;6.20;1.00
11091;DHT22;5599;52.210;21.046;2023-03-12T12:15:30;6.00;1.00
11091;DHT22;5599;52.210;21.046;2023-03-12T12:18:17;6.00;1.00
11091;DHT22;5599;52.210;21.046;2023-03-12T12:20:55;6.20;1.00
11091;DHT22;5599;52.210;21.046;2023-03-12T12:23:34;6.30;1.00
11091;DHT22;5599;52.210;21.046;2023-03-12T12:26:11;6.20;1.00
11091;DHT22;5599;52.210;21.046;2023-03-12T12:29:09;6.20;1.00
11091;DHT22;5599;52.210;21.046;2023-03-12T12:31:49;6.20;1.00
11091;DHT22;5599;52.210;21.046;2023-03-12T12:37:38;6.50;1.00
11091;DHT22;5599;52.210;21.046;2023-03-12T12:40:17;6.40;1.00
11091;DHT22;5599;52.210;21.046;2023-03-12T12:42:54;6.40;1.00
11091;DHT22;5599;52.210;21.046;2023-03-12T12:45:28;6.50;1.00
11091;DHT22;5599;52.210;21.046;2023-03-12T12:48:01;6.80;1.00
11091;DHT22;5599;52.210;21.046;2023-03-12T12:50:35;7.10;1.00
11091;DHT22;5599;52.210;21.046;2023-03-12T12:53:19;7.20;1.00
11091;DHT22;5599;52.210;21.046;2023-03-12T12:55:58;6.90;1.00
11091;DHT22;5599;52.210;21.046;2023-03-12T12:58:51;6.90;1.00
11091;DHT22;5599;52.210;21.046;2023-03-12T13:01:25;6.80;1.00
11091;DHT22;5599;52.210;21.046;2023-03-12T13:03:59;6.90;1.00
11091;DHT22;5599;52.210;21.046;2023-03-12T13:06:52;6.90;1.00
11091;DHT22;5599;52.210;21.046;2023-03-12T13:09:34;6.70;1.00
11091;DHT22;5599;52.210;21.046;2023-03-12T13:12:17;6.60;1.00
11091;DHT22;5599;52.210;21.046;2023-03-12T13:14:48;6.70;1.00
11091;DHT22;5599;52.210;21.046;2023-03-12T13:17:26;6.50;1.00
11091;DHT22;5599;52.210;21.046;2023-03-12T13:20:06;6.70;1.00
11091;DHT22;5599;52.210;21.046;2023-03-12T13:22:48;6.40;1.00
11091;DHT22;5599;52.210;21.046;2023-03-12T13:28:33;6.70;1.00
11091;DHT22;5599;52.210;21.046;2023-03-12T13:31:34;6.70;1.00
11091;DHT22;5599;52.210;21.046;2023-03-12T13:37:56;6.80;1.00
11091;DHT22;5599;52.210;21.046;2023-03-12T13:43:52;6.60;1.00
11091;DHT22;5599;52.210;21.046;2023-03-12T13:46:39;6.60;1.00
11091;DHT22;5599;52.210;21.046;2023-03-12T13:49:15;6.50;1.00
11091;DHT22;5599;52.210;21.046;2023-03-12T13:51:56;6.50;1.00
11091;DHT22;5599;52.210;21.046;2023-03-12T13:54:42;6.60;1.00
11091;DHT22;5599;52.210;21.046;2023-03-12T13:57:24;6.70;1.00
11091;DHT22;5599;52.210;21.046;2023-03-12T13:59:55;6.80;1.00
11091;DHT22;5599;52.210;21.046;2023-03-12T14:02:29;6.80;1.00
11091;DHT22;5599;52.210;21.046;2023-03-12T14:05:05;6.90;1.00
11091;DHT22;5599;52.210;21.046;2023-03-12T14:10:46;7.00;1.00
11091;DHT22;5599;52.210;21.046;2023-03-12T14:13:28;7.00;1.00
11091;DHT22;5599;52.210;21.046;2023-03-12T14:16:07;6.80;1.00
11091;DHT22;5599;52.210;21.046;2023-03-12T14:18:39;6.70;1.00
11091;DHT22;5599;52.210;21.046;2023-03-12T14:21:14;6.60;1.00
11091;DHT22;5599;52.210;21.046;2023-03-12T14:23:49;6.50;1.00
11091;DHT22;5599;52.210;21.046;2023-03-12T14:26:24;6.40;1.00
11091;DHT22;5599;52.210;21.046;2023-03-12T14:28:58;6.30;1.00
11091;DHT22;5599;52.210;21.046;2023-03-12T14:31:30;6.40;1.00
11091;DHT22;5599;52.210;21.046;2023-03-12T14:34:04;6.30;1.00
11091;DHT22;5599;52.210;21.046;2023-03-12T14:36:39;6.20;1.00
11091;DHT22;5599;52.210;21.046;2023-03-12T14:39:24;6.10;1.00
11091;DHT22;5599;52.210;21.046;2023-03-12T14:42:01;6.10;1.00
11091;DHT22;5599;52.210;21.046;2023-03-12T14:44:33;6.00;79.70
11091;DHT22;5599;52.210;21.046;2023-03-12T14:47:05;5.90;26.80
11091;DHT22;5599;52.210;21.046;2023-03-12T14:49:40;5.80;63.80
11091;DHT22;5599;52.210;21.046;2023-03-12T14:52:11;5.80;99.90
11091;DHT22;5599;52.210;21.046;2023-03-12T14:54:52;5.70;49.20
11091;DHT22;5599;52.210;21.046;2023-03-12T14:57:25;5.70;4.70
11091;DHT22;5599;52.210;21.046;2023-03-12T14:59:57;5.70;1.00
11091;DHT22;5599;52.210;21.046;2023-03-12T15:02:29;5.60;96.90
11091;DHT22;5599;52.210;21.046;2023-03-12T15:05:01;5.60;99.90
11091;DHT22;5599;52.210;21.046;2023-03-12T15:07:33;5.50;1.00
11091;DHT22;5599;52.210;21.046;2023-03-12T15:10:05;5.50;96.80
11091;DHT22;5599;52.210;21.046;2023-03-12T15:12:38;5.50;1.00
11091;DHT22;5599;52.210;21.046;2023-03-12T15:15:15;5.40;5.60
11091;DHT22;5599;52.210;21.046;2023-03-12T15:17:49;5.30;91.20
11091;DHT22;5599;52.210;21.046;2023-03-12T15:20:20;5.30;11.00
11091;DHT22;5599;52.210;21.046;2023-03-12T15:22:52;5.30;74.50
11091;DHT22;5599;52.210;21.046;2023-03-12T15:25:24;5.20;92.70
11091;DHT22;5599;52.210;21.046;2023-03-12T15:28:05;5.10;67.90
11091;DHT22;5599;52.210;21.046;2023-03-12T15:30:37;5.10;84.40
11091;DHT22;5599;52.210;21.046;2023-03-12T15:33:10;5.10;99.90
11091;DHT22;5599;52.210;21.046;2023-03-12T15:35:41;5.10;87.40
11091;DHT22;5599;52.210;21.046;2023-03-12T15:38:14;5.10;55.50
11091;DHT22;5599;52.210;21.046;2023-03-12T15:40:48;5.20;99.90
11091;DHT22;5599;52.210;21.046;2023-03-12T15:43:21;5.10;99.90
11091;DHT22;5599;52.210;21.046;2023-03-12T15:45:58;5.10;99.90
11091;DHT22;5599;52.210;21.046;2023-03-12T15:48:30;5.10;99.90
11091;DHT22;5599;52.210;21.046;2023-03-12T15:51:09;5.10;99.90
11091;DHT22;5599;52.210;21.046;2023-03-12T15:53:42;5.00;69.70
11091;DHT22;5599;52.210;21.046;2023-03-12T15:56:21;5.10;99.90
11091;DHT22;5599;52.210;21.046;2023-03-12T15:59:02;5.10;99.90
11091;DHT22;5599;52.210;21.046;2023-03-12T16:01:44;5.10;99.90
11091;DHT22;5599;52.210;21.046;2023-03-12T16:04:15;5.00;99.90
11091;DHT22;5599;52.210;21.046;2023-03-12T16:06:47;5.00;99.90
11091;DHT22;5599;52.210;21.046;2023-03-12T16:09:19;5.00;1.00
11091;DHT22;5599;52.210;21.046;2023-03-12T16:11:53;5.00;23.40
11091;DHT22;5599;52.210;21.046;2023-03-12T16:14:28;5.10;36.50
11091;DHT22;5599;52.210;21.046;2023-03-12T16:16:58;5.00;40.60
11091;DHT22;5599;52.210;21.046;2023-03-12T16:19:31;5.00;99.90
11091;DHT22;5599;52.210;21.046;2023-03-12T16:22:04;5.00;20.70
11091;DHT22;5599;52.210;21.046;2023-03-12T16:24:34;5.00;1.00
11091;DHT22;5599;52.210;21.046;2023-03-12T16:27:04;5.00;1.00
11091;DHT22;5599;52.210;21.046;2023-03-12T16:29:41;5.00;1.00
11091;DHT22;5599;52.210;21.046;2023-03-12T16:32:13;5.00;1.00
11091;DHT22;5599;52.210;21.046;2023-03-12T16:34:44;4.90;1.00
11091;DHT22;5599;52.210;21.046;2023-03-12T16:37:15;4.80;1.00
11091;DHT22;5599;52.210;21.046;2023-03-12T16:39:46;4.80;1.00
11091;DHT22;5599;52.210;21.046;2023-03-12T16:42:18;4.80;1.00
11091;DHT22;5599;52.210;21.046;2023-03-12T16:44:51;4.80;1.00
11091;DHT22;5599;52.210;21.046;2023-03-12T16:47:22;4.80;1.00
11091;DHT22;5599;52.210;21.046;2023-03-12T16:49:53;4.70;1.00